Saturday, August 18, 2018, 8:28 PM EDT
Back to Local

KBUF, Greater Buffalo International Airport

Location: Buffalo, NY, United States Lat: 42.933
Local Time: 8:28 PM EDT ( 0:28 GMT) Lon: -78.733
Time Zone: US/Eastern Elev: 725 ft

Show me the last for .
Show Decoded

2018-08-18 19:54 METAR KBUF 182354Z 06003KT 10SM OVC250 21/16 A2997 RMK AO2 SLP145 T02060161
                 10233 20206 51004 $ =
2018-08-18 18:54 METAR KBUF 182254Z 03005KT 10SM FEW030 OVC250 21/16 A2996 RMK AO2 SLP144
                 T02110156 $ =
2018-08-18 17:54 METAR KBUF 182154Z 04009KT 10SM FEW030 OVC250 22/16 A2996 RMK AO2 SLP144
                 T02170156 $ =
2018-08-18 16:54 METAR KBUF 182054Z 02008KT 10SM BKN030 OVC250 22/16 A2996 RMK AO2 SLP142
                 T02220156 58002 $ =
2018-08-18 15:54 METAR KBUF 181954Z 05010KT 10SM SCT032 BKN036 BKN250 23/16 A2996 RMK AO2 SLP143
                 T02280161 $ =
2018-08-18 15:13 METAR KBUF 181913Z 03011KT 10SM SCT025 BKN030 BKN036 22/17 A2996 RMK AO2
                 T02220167 $ =
2018-08-18 14:54 METAR KBUF 181854Z 04006KT 10SM BKN025 BKN030 22/17 A2996 RMK AO2 SLP142
                 T02220167 $ =
2018-08-18 13:54 METAR KBUF 181754Z 04010KT 10SM BKN025 BKN029 22/17 A2996 RMK AO2 SLP142
                 T02170167 10228 20183 51005 $ =
2018-08-18 12:54 METAR KBUF 181654Z 02008G15KT 10SM BKN023 BKN027 22/17 A2996 RMK AO2 SLP142
                 T02170172 $ =
2018-08-18 11:54 METAR KBUF 181554Z 04011KT 10SM BKN026 22/17 A2995 RMK AO2 SLP140 T02220172 $ =
2018-08-18 10:54 METAR KBUF 181454Z 02008KT 10SM FEW015 SCT020 BKN026 BKN250 22/18 A2995 RMK AO2
                 SLP137 T02170178 50006 $ =
2018-08-18 10:08 METAR KBUF 181408Z 03009KT 10SM BKN015 BKN021 21/17 A2995 RMK AO2 T02060172 $ =
2018-08-18 09:54 METAR KBUF 181354Z 04009KT 10SM BKN012 BKN018 21/17 A2995 RMK AO2 SLP138
                 T02060172 $ =
2018-08-18 09:31 METAR KBUF 181331Z 05008KT 10SM BKN010 BKN018 21/18 A2994 RMK AO2 T02060183 =
2018-08-18 08:54 METAR KBUF 181254Z 04007KT 10SM FEW007 FEW040 BKN110 BKN170 BKN250 19/18 A2994
                 RMK AO2 SLP135 T01940183 =
2018-08-18 08:02 METAR KBUF 181202Z 04006KT 10SM SCT005 SCT030 BKN055 BKN130 BKN170 18/18 A2993
                 RMK AO2 T01830183 =
2018-08-18 07:54 METAR KBUF 181154Z 03006KT 10SM SCT030 BKN055 BKN120 BKN170 18/18 A2993 RMK AO2
                 RAE53 SLP131 P0003 60060 70135 T01830183 10211 20178 53010 =
2018-08-18 06:54 METAR KBUF 181054Z 06008KT 9SM -RA SCT055 SCT075 BKN100 OVC130 18/18 A2992 RMK
                 AO2 SLP127 P0006 T01780178 =
2018-08-18 05:54 METAR KBUF 180954Z 03007KT 10SM -RA FEW041 BKN110 OVC140 18/17 A2991 RMK AO2
                 SLP124 P0004 T01780172 =
2018-08-18 05:24 METAR KBUF 180924Z 05010KT 8SM RA FEW006 OVC032 18/18 A2989 RMK AO2 P0002
                 T01830178 =
2018-08-18 04:54 METAR KBUF 180854Z 03010G20KT 8SM RA FEW005 SCT009 OVC024 19/18 A2990 RMK AO2
                 SLP121 P0006 60047 T01890183 53003 =
2018-08-18 04:26 METAR KBUF 180826Z 03009KT 5SM RA BR BKN007 OVC017 19/19 A2989 RMK AO2 CIG
                 005V009 P0002 T01940189 =
2018-08-18 04:13 METAR KBUF 180813Z 05008KT 10SM -RA FEW006 BKN018 OVC065 19/19 A2989 RMK AO2
                 P0001 T01940194 =
2018-08-18 03:54 METAR KBUF 180754Z 07010KT 8SM RA FEW005 BKN050 OVC065 19/19 A2988 RMK AO2
                 SLP115 P0020 T01940194 =
2018-08-18 03:29 METAR KBUF 180729Z 05012KT 5SM +RA BR FEW005 OVC014 20/19 A2989 RMK AO2 P0013
                 T02000194 =
2018-08-18 03:06 METAR KBUF 180706Z 05007KT 5SM +RA BR BKN005 BKN010 OVC080 21/21 A2989 RMK AO2
                 P0003 T02110206 =
2018-08-18 02:54 METAR KBUF 180654Z 04005KT 4SM RA BR BKN003 BKN012 OVC080 21/21 A2989 RMK AO2
                 SLP117 P0021 T02110211 =
2018-08-18 02:45 METAR KBUF 180645Z 00000KT 4SM RA BR BKN005 BKN036 OVC085 21/21 A2989 RMK AO2
                 P0018 T02110211 =
2018-08-18 02:41 METAR KBUF 180641Z 00000KT 5SM RA BR FEW003 BKN070 OVC085 21/21 A2989 RMK AO2
                 P0017 T02110211 =
2018-08-18 02:28 METAR KBUF 180628Z 00000KT 3SM RA BR FEW050 BKN065 OVC080 21/21 A2989 RMK AO2
                 P0013 T02110211 =
2018-08-18 02:18 METAR KBUF 180618Z 22003KT 2 1/2SM +RA BR SCT055 OVC070 21/21 A2990 =
2018-08-18 02:11 METAR KBUF 180611Z 23004KT 3SM +RA BR FEW008 BKN048 OVC070 21/21 A2989 RMK AO2
                 P0006 T02110206 =
2018-08-18 02:02 METAR KBUF 180602Z 23003KT 4SM RA BR FEW008 BKN047 OVC070 21/21 A2989 RMK AO2
                 P0004 T02110206 =
2018-08-18 01:54 METAR KBUF 180554Z COR 18004KT 2 1/2SM +RA BR BKN008 BKN016 OVC039 21/21 A2989
                 RMK AO2 LTG DSNT NW TSE26 SLP118 OCNL LTGIC DSNT SW-NW CB DSNT SW-NW MOV N TS
                 DSIPTD P0044 60066 T02110206 10244 20206 58002 =
2018-08-18 01:28 METAR KBUF 180528Z 23004KT 9SM -RA BKN006 OVC016 21/21 A2990 RMK AO2 LTG DSNT NW
                 TSE26 TS DSIPTD P0039 T02110206 =
2018-08-18 01:17 METAR KBUF 180517Z 30004KT 3SM -TSRA BR FEW004 SCT008 OVC016CB 21/21 A2990 RMK
                 AO2 OCNL LTGICCC E-OHD-W TS E-OHD-W MOV E P0038 T02110206 =
2018-08-18 01:04 METAR KBUF 180504Z 00000KT 1SM R23/P6000FT +TSRA BR FEW004 SCT008 OVC016CB 21/21
                 A2990 RMK AO2 LTG DSNT W OCNL LTGICCC E-OHD-W TS E-OHD-W MOV E P0026 T02060206 =
2018-08-18 00:57 METAR KBUF 180457Z 00000KT 3/4SM R23/P6000FT +TSRA BR FEW005 BKN012CB OVC036
                 21/21 A2990 =
2018-08-18 00:54 METAR KBUF 180454Z 23003KT 1SM R23/P6000FT +TSRA BR SCT005 BKN012CB OVC036 21/21
                 A2990 RMK AO2 LTG DSNT W RAB14 SLP122 OCNL LTGICCC E-OHD-W TS E-OHD-W MOV E
                 P0022 T02060206 402610206 =
2018-08-18 00:43 METAR KBUF 180443Z 22010KT 2 1/2SM +TSRA BR SCT005 BKN012 OVC016CB 21/21 A2990
                 RMK AO2 LTG DSNT W RAB14 OCNL LTGICCC E-OHD-W TS E-OHD-W MOV E P0007 T02110211 =
2018-08-18 00:32 METAR KBUF 180432Z 20008KT 6SM TSRA BR BKN012 BKN026CB OVC033 22/21 A2991 RMK
                 AO2 RAB14 FRQ LTGICCC E-OHD-W TS E-OHD-W MOV E P0003 T02170211 =
2018-08-17 23:54 METAR KBUF 180354Z 35006KT 10SM TS SCT012 BKN020CB OVC040 23/22 A2990 RMK AO2
                 RAE09B31E49 TSB38 SLP120 OCNL LTGIC SE-S TS SE-S MOV NE P0000 T02280217 =
2018-08-17 23:38 METAR KBUF 180338Z 35008KT 10SM -TSRA SCT012 BKN017CB OVC035 23/22 A2990 =
2018-08-17 23:03 METAR KBUF 180303Z 27004KT 10SM -RA SCT023 BKN029 OVC110 24/22 A2991 RMK AO2
                 P0000 T02390217 =
2018-08-17 22:54 METAR KBUF 180254Z 26004KT 9SM -RA SCT023 BKN030 BKN110 OVC150 24/22 A2991 RMK
                 AO2 SLP124 RAB40 P0000 60000 T02390217 50006 =
2018-08-17 21:54 METAR KBUF 180154Z 26007KT 10SM SCT018 BKN034 BKN075 OVC130 24/21 A2992 RMK AO2
                 SLP127 T02440211 =
2018-08-17 21:40 METAR KBUF 180140Z 26007KT 10SM FEW022 BKN031 BKN075 OVC150 24/21 A2991 RMK AO2
                 T02440211 =
2018-08-17 21:10 METAR KBUF 180110Z 25008KT 10SM SCT022 BKN027 OVC040 24/22 A2991 RMK AO2
                 T02440217 =
2018-08-17 20:54 METAR KBUF 180054Z 23008KT 10SM SCT040 BKN055 OVC150 24/22 A2991 RMK AO2 SLP123
                 T02440217 =

Support USWX by starting your Amazon purchase here.